createdAt,value
2018-09-03T00:00:35.209Z,3.58
2018-09-03T00:03:33.729Z,3.80
2018-09-03T00:06:31.568Z,3.37
2018-09-03T00:09:30.856Z,6.08
2018-09-03T00:12:28.885Z,7.85
2018-09-03T00:15:27.148Z,6.22
2018-09-03T00:18:40.268Z,4.15
2018-09-03T00:21:39.616Z,4.75
2018-09-03T00:24:38.598Z,4.65
2018-09-03T00:27:36.833Z,4.78
2018-09-03T00:30:34.981Z,7.62
2018-09-03T00:33:39.084Z,5.72
2018-09-03T00:36:43.270Z,5.12
2018-09-03T00:39:47.320Z,4.22
2018-09-03T00:42:51.303Z,2.85
2018-09-03T00:45:56.157Z,5.05
2018-09-03T00:48:54.781Z,4.20
2018-09-03T00:51:52.970Z,3.83
2018-09-03T00:54:51.305Z,3.55
2018-09-03T00:57:49.482Z,3.75
2018-09-03T01:00:47.318Z,3.75
2018-09-03T01:03:46.369Z,4.72
2018-09-03T01:06:44.515Z,3.27
2018-09-03T01:09:42.724Z,4.67
2018-09-03T01:12:40.589Z,3.30
2018-09-03T01:15:39.972Z,5.33
2018-09-03T01:18:38.960Z,2.72
2018-09-03T01:21:37.970Z,3.77
2018-09-03T01:24:36.981Z,5.53
2018-09-03T01:27:35.116Z,5.42
2018-09-03T01:30:33.119Z,6.55
2018-09-03T01:33:31.254Z,4.17
2018-09-03T01:36:30.278Z,3.58
2018-09-03T01:39:31.442Z,6.85
2018-09-03T01:42:29.637Z,3.67
2018-09-03T01:45:28.053Z,3.95
2018-09-03T01:48:27.734Z,3.42
2018-09-03T01:51:25.972Z,2.60
2018-09-03T01:54:24.062Z,3.33
2018-09-03T01:57:22.554Z,2.80
2018-09-03T02:00:21.074Z,3.15
2018-09-03T02:03:19.108Z,4.53
2018-09-03T02:06:17.099Z,4.30
2018-09-03T02:09:15.016Z,3.05
2018-09-03T02:12:17.329Z,3.22
2018-09-03T02:15:15.477Z,3.02
2018-09-03T02:18:13.280Z,3.25
2018-09-03T02:21:12.729Z,3.70
2018-09-03T02:24:11.829Z,3.15
2018-09-03T02:27:09.982Z,3.52
2018-09-03T02:30:07.811Z,4.15
2018-09-03T02:33:07.043Z,2.55
2018-09-03T02:36:06.098Z,2.55
2018-09-03T02:39:04.351Z,3.22
2018-09-03T02:42:02.182Z,3.30
2018-09-03T02:45:00.198Z,2.60
2018-09-03T02:47:58.483Z,3.15
2018-09-03T02:50:56.585Z,2.52
2018-09-03T02:53:54.588Z,3.52
2018-09-03T02:56:52.933Z,3.47
2018-09-03T02:59:52.086Z,3.02
2018-09-03T03:02:50.446Z,3.02
2018-09-03T03:05:48.337Z,3.47
2018-09-03T03:08:47.709Z,3.98
2018-09-03T03:11:47.064Z,5.33
2018-09-03T03:14:45.112Z,2.95
2018-09-03T03:17:43.301Z,3.62
2018-09-03T03:20:41.450Z,2.20
2018-09-03T03:23:39.764Z,2.20
2018-09-03T03:26:38.031Z,4.58
2018-09-03T03:29:35.964Z,3.02
2018-09-03T03:32:34.161Z,3.27
2018-09-03T03:35:32.289Z,2.52
2018-09-03T03:38:30.579Z,5.15
2018-09-03T03:41:28.645Z,3.15
2018-09-03T03:44:26.806Z,2.85
2018-09-03T03:47:24.978Z,2.27
2018-09-03T03:50:23.301Z,5.30
2018-09-03T03:53:21.284Z,2.37
2018-09-03T03:56:19.753Z,3.12
2018-09-03T03:59:17.730Z,2.65
2018-09-03T04:02:17.032Z,3.37
2018-09-03T04:05:14.983Z,2.45
2018-09-03T04:08:13.654Z,4.60
2018-09-03T04:11:11.814Z,3.33
2018-09-03T04:14:11.234Z,2.70
2018-09-03T04:17:09.877Z,2.42
2018-09-03T04:20:10.209Z,2.17
2018-09-03T04:23:08.192Z,3.00
2018-09-03T04:26:06.180Z,3.52
2018-09-03T04:29:04.226Z,3.10
2018-09-03T04:32:02.439Z,2.33
2018-09-03T04:35:00.365Z,2.50
2018-09-03T04:37:58.797Z,3.15
2018-09-03T04:40:56.782Z,2.05
2018-09-03T04:43:55.160Z,2.35
2018-09-03T04:46:53.341Z,2.37
2018-09-03T04:49:51.734Z,2.70
2018-09-03T04:52:49.695Z,2.62
2018-09-03T04:55:48.938Z,3.40
2018-09-03T04:58:47.034Z,3.77
2018-09-03T05:01:45.397Z,2.40
2018-09-03T05:04:43.407Z,3.00
2018-09-03T05:07:41.761Z,2.90
2018-09-03T05:10:39.740Z,3.85
2018-09-03T05:13:37.970Z,2.70
2018-09-03T05:16:36.230Z,4.78
2018-09-03T05:19:34.607Z,3.25
2018-09-03T05:22:32.553Z,3.15
2018-09-03T05:25:30.601Z,3.27
2018-09-03T05:28:29.757Z,2.50
2018-09-03T05:31:27.927Z,2.22
2018-09-03T05:34:25.766Z,3.40
2018-09-03T05:37:24.240Z,4.35
2018-09-03T05:40:23.050Z,2.90
2018-09-03T05:43:21.072Z,2.58
2018-09-03T05:46:20.060Z,2.87
2018-09-03T05:49:18.660Z,3.27
2018-09-03T05:52:16.898Z,4.60
2018-09-03T05:55:15.319Z,3.85
2018-09-03T05:58:13.630Z,2.85
2018-09-03T06:01:12.538Z,2.85
2018-09-03T06:04:11.525Z,2.50
2018-09-03T06:07:09.542Z,2.90
2018-09-03T06:10:07.801Z,3.22
2018-09-03T06:13:06.338Z,3.02
2018-09-03T06:16:05.481Z,2.92
2018-09-03T06:19:03.571Z,9.70
2018-09-03T06:22:02.790Z,6.17
2018-09-03T06:25:01.365Z,5.65
2018-09-03T06:27:59.410Z,6.40
2018-09-03T06:30:57.581Z,6.53
2018-09-03T06:33:55.987Z,6.58
2018-09-03T06:36:54.092Z,7.53
2018-09-03T06:39:51.998Z,6.00
2018-09-03T06:42:50.308Z,5.95
2018-09-03T06:45:48.492Z,9.35
2018-09-03T06:48:46.920Z,11.70
2018-09-03T06:51:45.859Z,20.60
2018-09-03T06:54:43.968Z,25.32
2018-09-03T06:57:42.068Z,16.50
2018-09-03T07:00:40.158Z,18.45
2018-09-03T07:03:39.108Z,20.48
2018-09-03T07:06:37.420Z,22.93
2018-09-03T07:09:35.495Z,15.15
2018-09-03T07:12:33.487Z,13.03
2018-09-03T07:15:31.722Z,15.95
2018-09-03T07:18:29.612Z,14.07
2018-09-03T07:21:27.683Z,10.72
2018-09-03T07:24:26.014Z,13.58
2018-09-03T07:27:25.357Z,13.35
2018-09-03T07:30:23.648Z,13.10
2018-09-03T07:33:21.707Z,10.45
2018-09-03T07:36:20.515Z,9.90
2018-09-03T07:39:20.041Z,13.83
2018-09-03T07:42:18.476Z,12.85
2018-09-03T07:45:16.641Z,8.55
2018-09-03T07:48:15.259Z,9.45
2018-09-03T07:51:13.302Z,9.08
2018-09-03T07:54:11.297Z,6.83
2018-09-03T07:57:09.095Z,9.15
2018-09-03T08:00:07.477Z,8.18
2018-09-03T08:03:06.478Z,8.55
2018-09-03T08:06:04.492Z,8.45
2018-09-03T08:09:02.728Z,7.30
2018-09-03T08:12:00.949Z,8.83
2018-09-03T08:14:59.185Z,7.17
2018-09-03T08:17:57.256Z,9.03
2018-09-03T08:20:55.218Z,7.80
2018-09-03T08:23:53.413Z,7.47
2018-09-03T08:26:52.609Z,6.72
2018-09-03T08:29:50.758Z,8.63
2018-09-03T08:32:48.877Z,7.75
2018-09-03T08:35:47.001Z,6.97
2018-09-03T08:38:45.036Z,5.40
2018-09-03T08:41:44.289Z,7.70
2018-09-03T08:44:42.608Z,7.03
2018-09-03T08:47:40.874Z,8.18
2018-09-03T08:50:39.794Z,6.08
2018-09-03T08:53:39.232Z,7.08
2018-09-03T08:56:38.288Z,6.40
2018-09-03T08:59:36.758Z,6.87
2018-09-03T09:02:35.489Z,5.47
2018-09-03T09:05:33.726Z,7.12
2018-09-03T09:08:31.577Z,6.75
2018-09-03T09:11:29.894Z,5.97
2018-09-03T09:14:28.701Z,7.08
2018-09-03T09:17:26.996Z,5.67
2018-09-03T09:20:24.870Z,9.55
2018-09-03T09:23:23.844Z,5.17
2018-09-03T09:26:21.862Z,6.60
2018-09-03T09:29:20.126Z,6.35
2018-09-03T09:32:18.009Z,5.58
2018-09-03T09:35:16.393Z,7.05
2018-09-03T09:38:15.786Z,5.92
2018-09-03T09:41:13.860Z,5.35
2018-09-03T09:44:12.950Z,10.43
2018-09-03T09:47:10.833Z,6.75
2018-09-03T09:50:08.905Z,5.55
2018-09-03T09:53:08.112Z,6.85
2018-09-03T09:56:06.342Z,5.65
2018-09-03T09:59:05.302Z,4.25
2018-09-03T10:02:04.600Z,4.97
2018-09-03T10:05:03.831Z,4.70
2018-09-03T10:08:02.103Z,5.05
2018-09-03T10:11:00.723Z,6.05
2018-09-03T10:13:58.696Z,6.12
2018-09-03T10:16:56.965Z,5.58
2018-09-03T10:19:54.861Z,4.47
2018-09-03T10:22:53.004Z,5.65
2018-09-03T10:25:51.217Z,6.03
2018-09-03T10:28:49.532Z,9.63
2018-09-03T10:31:48.012Z,5.95
2018-09-03T10:34:47.170Z,6.50
2018-09-03T10:37:44.938Z,4.28
2018-09-03T10:40:43.112Z,5.08
2018-09-03T10:43:41.322Z,5.08
2018-09-03T10:46:39.360Z,3.60
2018-09-03T10:49:38.546Z,4.90
2018-09-03T10:52:37.914Z,6.28
2018-09-03T10:55:36.053Z,4.28
2018-09-03T10:58:34.309Z,4.58
2018-09-03T11:01:32.346Z,4.20
2018-09-03T11:04:30.366Z,4.97
2018-09-03T11:07:28.366Z,4.55
2018-09-03T11:10:26.546Z,3.30
2018-09-03T11:13:25.542Z,3.98
2018-09-03T11:16:23.917Z,3.95
2018-09-03T11:19:23.256Z,4.05
2018-09-03T11:22:21.810Z,3.27
2018-09-03T11:25:20.852Z,3.55
2018-09-03T11:28:19.183Z,5.10
2018-09-03T11:31:17.405Z,4.53
2018-09-03T11:34:15.318Z,3.52
2018-09-03T11:37:13.100Z,3.12
2018-09-03T11:40:11.245Z,3.37
2018-09-03T11:43:09.512Z,4.92
2018-09-03T11:46:07.555Z,4.70
2018-09-03T11:49:05.351Z,3.58
2018-09-03T11:52:03.715Z,3.62
2018-09-03T11:55:01.817Z,2.70
2018-09-03T11:58:00.142Z,3.65
2018-09-03T12:00:59.158Z,3.67
2018-09-03T12:03:57.554Z,3.02
2018-09-03T12:07:03.715Z,3.65
2018-09-03T12:10:01.866Z,4.85
2018-09-03T12:12:59.709Z,3.10
2018-09-03T12:16:31.679Z,3.35
2018-09-03T12:19:29.522Z,2.95
2018-09-03T12:22:27.952Z,2.50
2018-09-03T12:25:25.993Z,3.47
2018-09-03T12:28:24.341Z,2.90
2018-09-03T12:31:22.931Z,3.60
2018-09-03T12:34:21.165Z,3.30
2018-09-03T12:37:19.021Z,2.37
2018-09-03T12:40:17.429Z,2.92
2018-09-03T12:43:15.482Z,2.70
2018-09-03T12:46:15.601Z,3.80
2018-09-03T12:49:13.294Z,3.22
2018-09-03T12:52:11.770Z,3.25
2018-09-03T12:55:10.264Z,2.55
2018-09-03T12:58:08.421Z,3.30
2018-09-03T13:01:06.193Z,3.20
2018-09-03T13:04:05.454Z,2.37
2018-09-03T13:07:03.377Z,2.67
2018-09-03T13:10:01.490Z,3.62
2018-09-03T13:12:59.588Z,3.47
2018-09-03T13:15:57.666Z,3.95
2018-09-03T13:18:55.966Z,4.90
2018-09-03T13:21:54.226Z,3.00
2018-09-03T13:24:52.346Z,2.70
2018-09-03T13:27:51.494Z,3.35
2018-09-03T13:30:49.528Z,4.97
2018-09-03T13:33:48.715Z,3.45
2018-09-03T13:36:46.712Z,3.52
2018-09-03T13:39:46.761Z,2.65
2018-09-03T13:42:45.066Z,2.85
2018-09-03T13:45:43.345Z,2.50
2018-09-03T13:48:41.447Z,3.77
2018-09-03T13:51:39.695Z,3.35
2018-09-03T13:54:37.694Z,2.80
2018-09-03T13:57:36.156Z,3.17
2018-09-03T14:00:33.870Z,3.12
2018-09-03T14:03:32.362Z,3.10
2018-09-03T14:06:31.736Z,3.33
2018-09-03T14:09:29.863Z,3.15
2018-09-03T14:12:27.943Z,3.62
2018-09-03T14:15:26.137Z,2.50
2018-09-03T14:18:24.254Z,3.47
2018-09-03T14:21:22.726Z,3.60
2018-09-03T14:24:20.315Z,2.55
2018-09-03T14:27:24.500Z,2.83
2018-09-03T14:30:22.517Z,3.02
2018-09-03T14:33:20.541Z,2.98
2018-09-03T14:36:18.586Z,3.52
2018-09-03T14:39:18.942Z,3.50
2018-09-03T14:42:17.145Z,3.25
2018-09-03T14:45:15.313Z,2.50
2018-09-03T14:48:13.018Z,4.45
2018-09-03T14:51:11.239Z,2.75
2018-09-03T14:54:09.311Z,3.58
2018-09-03T14:57:07.752Z,3.10
2018-09-03T15:00:05.827Z,2.77
2018-09-03T15:03:04.755Z,2.47
2018-09-03T15:06:02.569Z,3.55
2018-09-03T15:09:00.505Z,2.83
2018-09-03T15:11:58.538Z,3.12
2018-09-03T15:14:56.868Z,2.77
2018-09-03T15:17:54.985Z,2.40
2018-09-03T15:20:53.166Z,2.65
2018-09-03T15:23:50.958Z,3.10
2018-09-03T15:26:49.122Z,2.75
2018-09-03T15:29:47.093Z,3.75
2018-09-03T15:32:45.456Z,2.67
2018-09-03T15:35:44.437Z,2.37
2018-09-03T15:38:42.377Z,2.27
2018-09-03T15:41:40.472Z,2.55
2018-09-03T15:44:38.647Z,4.53
2018-09-03T15:47:36.563Z,3.40
2018-09-03T15:50:34.833Z,2.20
2018-09-03T15:53:33.813Z,3.52
2018-09-03T15:56:33.031Z,3.45
2018-09-03T15:59:31.015Z,4.08
2018-09-03T16:02:29.146Z,3.98
2018-09-03T16:05:28.142Z,3.62
2018-09-03T16:08:26.738Z,4.17
2018-09-03T16:11:24.868Z,3.47
2018-09-03T16:14:23.117Z,3.45
2018-09-03T16:17:21.360Z,3.92
2018-09-03T16:20:19.394Z,3.72
2018-09-03T16:23:17.559Z,3.47
2018-09-03T16:26:15.484Z,3.95
2018-09-03T16:29:13.474Z,3.47
2018-09-03T16:32:11.621Z,4.30
2018-09-03T16:35:10.706Z,4.60
2018-09-03T16:38:09.012Z,4.05
2018-09-03T16:41:07.137Z,4.05
2018-09-03T16:44:05.205Z,4.28
2018-09-03T16:47:03.028Z,4.28
2018-09-03T16:50:01.192Z,5.45
2018-09-03T16:52:59.375Z,5.60
2018-09-03T16:55:57.915Z,4.78
2018-09-03T16:58:57.062Z,4.83
2018-09-03T17:01:55.989Z,3.67
2018-09-03T17:04:55.172Z,4.10
2018-09-03T17:07:53.295Z,3.47
2018-09-03T17:10:52.368Z,3.90
2018-09-03T17:13:50.435Z,3.60
2018-09-03T17:16:48.607Z,5.70
2018-09-03T17:19:46.713Z,4.15
2018-09-03T17:22:44.463Z,5.17
2018-09-03T17:25:43.445Z,4.55
2018-09-03T17:28:41.389Z,3.62
2018-09-03T17:31:39.232Z,3.70
2018-09-03T17:34:37.484Z,3.95
2018-09-03T17:37:35.852Z,4.28
2018-09-03T17:40:33.988Z,6.40
2018-09-03T17:43:32.117Z,9.03
2018-09-03T17:46:29.979Z,5.87
2018-09-03T17:49:28.072Z,14.93
2018-09-03T17:52:27.342Z,13.43
2018-09-03T17:55:25.809Z,9.98
2018-09-03T17:58:23.955Z,24.50
2018-09-03T18:01:22.108Z,9.28
2018-09-03T18:04:20.258Z,6.72
2018-09-03T18:07:18.697Z,14.15
2018-09-03T18:10:16.710Z,13.62
2018-09-03T18:13:14.886Z,10.82
2018-09-03T18:16:12.850Z,8.30
2018-09-03T18:19:12.121Z,5.80
2018-09-03T18:22:11.076Z,8.15
2018-09-03T18:25:09.351Z,7.87
2018-09-03T18:28:07.861Z,12.10
2018-09-03T18:31:06.312Z,8.58
2018-09-03T18:34:04.461Z,8.28
2018-09-03T18:37:02.917Z,9.63
2018-09-03T18:40:00.883Z,11.03
2018-09-03T18:43:00.072Z,7.20
2018-09-03T18:45:58.353Z,8.78
2018-09-03T18:48:56.586Z,7.12
2018-09-03T18:51:54.622Z,6.95
2018-09-03T18:54:52.657Z,7.72
2018-09-03T18:57:50.978Z,7.78
2018-09-03T19:00:50.136Z,7.37
2018-09-03T19:03:48.043Z,6.47
2018-09-03T19:06:46.391Z,5.87
2018-09-03T19:09:44.571Z,6.65
2018-09-03T19:12:43.519Z,6.60
2018-09-03T19:15:41.830Z,7.45
2018-09-03T19:18:41.354Z,6.12
2018-09-03T19:21:39.445Z,7.70
2018-09-03T19:24:38.875Z,6.67
2018-09-03T19:27:38.734Z,6.28
2018-09-03T19:30:38.005Z,4.85
2018-09-03T19:33:37.199Z,5.83
2018-09-03T19:36:36.221Z,6.83
2018-09-03T19:39:34.092Z,6.47
2018-09-03T19:42:32.724Z,5.62
2018-09-03T19:45:31.482Z,5.70
2018-09-03T19:48:29.952Z,5.45
2018-09-03T19:51:29.499Z,6.30
2018-09-03T19:54:27.904Z,5.70
2018-09-03T19:57:26.113Z,6.25
2018-09-03T20:00:25.028Z,5.90
2018-09-03T20:03:23.212Z,6.10
2018-09-03T20:06:21.654Z,5.90
2018-09-03T20:09:21.815Z,8.68
2018-09-03T20:12:21.139Z,5.28
2018-09-03T20:15:22.451Z,5.00
2018-09-03T20:18:20.785Z,4.30
2018-09-03T20:21:18.928Z,4.95
2018-09-03T20:24:18.167Z,5.42
2018-09-03T20:27:16.220Z,5.90
2018-09-03T20:30:14.252Z,5.50
2018-09-03T20:33:12.551Z,4.87
2018-09-03T20:36:11.926Z,5.67
2018-09-03T20:39:11.679Z,5.12
2018-09-03T20:42:10.856Z,5.10
2018-09-03T20:45:08.896Z,5.05
2018-09-03T20:48:09.316Z,5.58
2018-09-03T20:51:07.316Z,5.37
2018-09-03T20:54:06.608Z,6.78
2018-09-03T20:57:04.741Z,6.97
2018-09-03T21:00:02.922Z,9.83
2018-09-03T21:03:00.850Z,8.85
2018-09-03T21:06:00.059Z,6.03
2018-09-03T21:08:57.965Z,5.10
2018-09-03T21:11:56.043Z,11.18
2018-09-03T21:14:53.972Z,7.08
2018-09-03T21:17:52.268Z,6.50
2018-09-03T21:20:49.916Z,7.20
2018-09-03T21:23:48.137Z,5.50
2018-09-03T21:26:46.118Z,7.60
2018-09-03T21:29:46.063Z,13.10
2018-09-03T21:32:45.260Z,15.13
2018-09-03T21:35:43.561Z,19.85
2018-09-03T21:38:42.687Z,31.05
2018-09-03T21:41:40.988Z,25.48
2018-09-03T21:44:40.103Z,30.55
2018-09-03T21:47:38.455Z,31.62
2018-09-03T21:50:36.470Z,22.32
2018-09-03T21:53:35.606Z,21.62
2018-09-03T21:56:34.762Z,28.20
2018-09-03T21:59:32.976Z,19.00
2018-09-03T22:02:30.746Z,25.30
2018-09-03T22:05:29.009Z,21.42
2018-09-03T22:08:27.265Z,21.35
2018-09-03T22:11:25.151Z,19.87
2018-09-03T22:14:23.150Z,17.10
2018-09-03T22:17:21.379Z,19.98
2018-09-03T22:20:19.988Z,15.10
2018-09-03T22:23:18.052Z,21.07
2018-09-03T22:26:15.889Z,17.32
2018-09-03T22:29:14.184Z,17.45
2018-09-03T22:32:12.187Z,17.52
2018-09-03T22:35:10.655Z,18.62
2018-09-03T22:38:08.560Z,17.27
2018-09-03T22:41:06.886Z,15.15
2018-09-03T22:44:04.798Z,11.48
2018-09-03T22:47:03.425Z,14.95
2018-09-03T22:50:03.860Z,14.15
2018-09-03T22:53:03.235Z,14.78
2018-09-03T22:56:03.019Z,10.30
2018-09-03T22:59:02.131Z,10.18
2018-09-03T23:02:01.302Z,12.10
2018-09-03T23:05:02.935Z,19.80
2018-09-03T23:08:04.708Z,12.07
2018-09-03T23:11:06.890Z,16.62
2018-09-03T23:14:09.062Z,11.68
2018-09-03T23:17:09.994Z,11.55
2018-09-03T23:20:11.361Z,12.18
2018-09-03T23:23:13.616Z,10.23
2018-09-03T23:26:16.462Z,12.07
2018-09-03T23:29:19.852Z,12.43
2018-09-03T23:32:22.094Z,8.75
2018-09-03T23:35:23.253Z,8.58
2018-09-03T23:38:25.199Z,9.53
2018-09-03T23:41:27.393Z,9.15
2018-09-03T23:44:29.392Z,8.08
2018-09-03T23:47:31.329Z,9.05
2018-09-03T23:50:32.472Z,10.68
2018-09-03T23:53:33.599Z,8.45
2018-09-03T23:56:34.097Z,9.68
2018-09-03T23:59:34.896Z,8.30
